createdAt,value
2018-03-01T00:00:55.732Z,21.63
2018-03-01T00:03:23.622Z,23.40
2018-03-01T00:05:51.656Z,22.23
2018-03-01T00:08:20.065Z,22.73
2018-03-01T00:10:48.233Z,26.87
2018-03-01T00:13:16.123Z,23.37
2018-03-01T00:15:44.036Z,21.43
2018-03-01T00:18:11.928Z,19.03
2018-03-01T00:20:39.832Z,24.80
2018-03-01T00:23:07.715Z,22.60
2018-03-01T00:25:35.680Z,21.93
2018-03-01T00:28:03.574Z,24.57
2018-03-01T00:30:31.459Z,24.33
2018-03-01T00:32:59.368Z,21.10
2018-03-01T00:35:27.269Z,24.07
2018-03-01T00:37:55.169Z,23.73
2018-03-01T00:40:23.769Z,26.33
2018-03-01T00:42:51.676Z,22.40
2018-03-01T00:45:19.672Z,27.17
2018-03-01T00:47:47.578Z,24.23
2018-03-01T00:50:15.121Z,23.60
2018-03-01T00:52:43.116Z,23.60
2018-03-01T00:55:11.027Z,29.80
2018-03-01T00:57:38.917Z,25.57
2018-03-01T01:00:06.837Z,23.73
2018-03-01T01:02:34.720Z,23.87
2018-03-01T01:05:02.628Z,25.23
2018-03-01T01:07:30.521Z,26.50
2018-03-01T01:09:58.441Z,26.70
2018-03-01T01:12:26.328Z,25.13
2018-03-01T01:14:54.212Z,26.20
2018-03-01T01:17:22.124Z,19.00
2018-03-01T01:19:50.017Z,23.23
2018-03-01T01:22:17.925Z,22.50
2018-03-01T01:24:45.821Z,20.67
2018-03-01T01:27:13.729Z,26.07
2018-03-01T01:29:41.906Z,20.87
2018-03-01T01:32:09.812Z,25.20
2018-03-01T01:34:37.705Z,22.33
2018-03-01T01:37:05.585Z,24.90
2018-03-01T01:39:33.557Z,23.10
2018-03-01T01:42:01.444Z,22.30
2018-03-01T01:44:29.356Z,24.43
2018-03-01T01:46:57.248Z,19.93
2018-03-01T01:49:25.156Z,20.43
2018-03-01T01:51:53.061Z,20.70
2018-03-01T01:54:20.939Z,27.07
2018-03-01T01:56:48.848Z,29.70
2018-03-01T01:59:16.745Z,26.23
2018-03-01T02:01:44.657Z,23.63
2018-03-01T02:04:12.543Z,22.53
2018-03-01T02:06:40.860Z,24.90
2018-03-01T02:09:08.776Z,26.23
2018-03-01T02:11:36.664Z,28.50
2018-03-01T02:14:04.565Z,24.97
2018-03-01T02:16:32.975Z,26.83
2018-03-01T02:19:00.864Z,24.57
2018-03-01T02:21:29.058Z,25.00
2018-03-01T02:23:57.019Z,24.83
2018-03-01T02:26:24.932Z,24.13
2018-03-01T02:28:52.821Z,30.00
2018-03-01T02:31:20.789Z,24.00
2018-03-01T02:33:48.993Z,24.00
2018-03-01T02:36:34.374Z,26.40
2018-03-01T02:39:02.314Z,25.50
2018-03-01T02:41:30.196Z,26.17
2018-03-01T02:43:58.108Z,29.47
2018-03-01T02:46:26.349Z,28.43
2018-03-01T02:48:54.253Z,23.37
2018-03-01T02:51:22.154Z,26.13
2018-03-01T02:53:50.048Z,22.43
2018-03-01T02:56:17.940Z,27.53
2018-03-01T02:58:45.842Z,24.40
2018-03-01T03:01:13.749Z,30.10
2018-03-01T03:03:41.668Z,28.13
2018-03-01T03:06:09.665Z,31.20
2018-03-01T03:08:37.761Z,28.77
2018-03-01T03:11:05.742Z,29.70
2018-03-01T03:13:33.746Z,31.03
2018-03-01T03:16:01.728Z,22.27
2018-03-01T03:18:29.956Z,24.13
2018-03-01T03:20:58.149Z,25.63
2018-03-01T03:23:26.128Z,31.63
2018-03-01T03:25:54.108Z,24.53
2018-03-01T03:28:22.097Z,27.27
2018-03-01T03:30:50.070Z,25.67
2018-03-01T03:33:18.139Z,22.83
2018-03-01T03:35:46.117Z,30.50
2018-03-01T03:38:14.084Z,25.17
2018-03-01T03:40:42.091Z,24.23
2018-03-01T03:43:10.060Z,29.20
2018-03-01T03:45:38.026Z,24.17
2018-03-01T03:48:06.047Z,23.13
2018-03-01T03:50:34.101Z,27.87
2018-03-01T03:53:02.337Z,27.40
2018-03-01T03:55:30.313Z,27.27
2018-03-01T03:57:58.280Z,28.10
2018-03-01T04:00:26.481Z,22.57
2018-03-01T04:02:54.452Z,27.80
2018-03-01T04:05:22.451Z,25.87
2018-03-01T04:07:50.413Z,20.83
2018-03-01T04:10:18.381Z,30.57
2018-03-01T04:12:46.381Z,27.03
2018-03-01T04:15:14.772Z,29.03
2018-03-01T04:17:43.053Z,25.47
2018-03-01T04:20:11.012Z,29.87
2018-03-01T04:22:38.974Z,21.30
2018-03-01T04:25:06.949Z,28.80
2018-03-01T04:27:34.913Z,29.37
2018-03-01T04:30:02.893Z,22.60
2018-03-01T04:32:30.859Z,29.70
2018-03-01T04:34:58.894Z,28.40
2018-03-01T04:37:27.121Z,27.07
2018-03-01T04:39:55.143Z,29.83
2018-03-01T04:42:23.210Z,23.30
2018-03-01T04:44:51.185Z,33.00
2018-03-01T04:47:19.574Z,21.90
2018-03-01T04:49:47.568Z,29.43
2018-03-01T04:52:15.552Z,28.57
2018-03-01T04:54:43.529Z,27.53
2018-03-01T04:57:12.506Z,26.77
2018-03-01T04:59:40.475Z,30.47
2018-03-01T05:02:08.445Z,34.10
2018-03-01T05:04:36.425Z,26.37
2018-03-01T05:07:04.461Z,30.13
2018-03-01T05:09:32.479Z,29.50
2018-03-01T05:12:03.089Z,29.47
2018-03-01T05:14:31.083Z,26.20
2018-03-01T05:16:59.058Z,24.93
2018-03-01T05:19:27.108Z,24.40
2018-03-01T05:21:55.256Z,26.60
2018-03-01T05:24:23.241Z,24.27
2018-03-01T05:26:52.259Z,24.17
2018-03-01T05:29:20.993Z,26.93
2018-03-01T05:31:48.956Z,23.97
2018-03-01T05:34:16.943Z,29.33
2018-03-01T05:36:44.975Z,23.13
2018-03-01T05:39:12.969Z,27.70
2018-03-01T05:41:40.960Z,27.23
2018-03-01T05:44:09.002Z,26.73
2018-03-01T05:46:37.056Z,29.37
2018-03-01T05:49:05.042Z,30.70
2018-03-01T05:51:33.054Z,28.63
2018-03-01T05:54:00.862Z,27.37
2018-03-01T05:56:28.877Z,31.03
2018-03-01T05:58:57.540Z,22.57
2018-03-01T06:01:26.114Z,27.00
2018-03-01T06:03:53.937Z,29.60
2018-03-01T06:06:22.456Z,28.90
2018-03-01T06:08:50.454Z,29.40
2018-03-01T06:11:18.444Z,25.80
2018-03-01T06:13:46.702Z,29.53
2018-03-01T06:16:14.701Z,29.87
2018-03-01T06:18:42.807Z,31.37
2018-03-01T06:21:11.536Z,26.17
2018-03-01T06:23:39.658Z,31.83
2018-03-01T06:26:07.685Z,30.43
2018-03-01T06:28:35.668Z,28.20
2018-03-01T06:31:03.662Z,20.53
2018-03-01T06:33:31.461Z,24.23
2018-03-01T06:35:59.925Z,30.00
2018-03-01T06:38:27.917Z,28.90
2018-03-01T06:40:55.923Z,29.30
2018-03-01T06:43:23.884Z,30.47
2018-03-01T06:45:51.669Z,27.27
2018-03-01T06:48:19.661Z,31.03
2018-03-01T06:50:47.730Z,29.37
2018-03-01T06:53:15.737Z,28.80
2018-03-01T06:55:43.736Z,26.07
2018-03-01T06:58:11.981Z,28.13
2018-03-01T07:00:39.942Z,28.87
2018-03-01T07:03:07.934Z,32.37
2018-03-01T07:05:36.052Z,32.70
2018-03-01T07:08:04.461Z,27.87
2018-03-01T07:10:32.567Z,26.90
2018-03-01T07:13:00.544Z,24.60
2018-03-01T07:15:28.528Z,29.40
2018-03-01T07:17:56.545Z,30.07
2018-03-01T07:20:24.333Z,30.90
2018-03-01T07:22:52.297Z,24.93
2018-03-01T07:25:20.729Z,28.33
2018-03-01T07:27:48.736Z,28.93
2018-03-01T07:30:16.701Z,29.73
2018-03-01T07:32:44.837Z,28.07
2018-03-01T07:35:12.907Z,30.90
2018-03-01T07:37:40.880Z,28.87
2018-03-01T07:40:08.948Z,27.93
2018-03-01T07:42:36.917Z,31.87
2018-03-01T07:45:05.236Z,28.37
2018-03-01T07:47:33.505Z,26.07
2018-03-01T07:50:01.476Z,27.23
2018-03-01T07:52:29.781Z,23.07
2018-03-01T07:54:57.769Z,27.57
2018-03-01T07:57:25.745Z,29.87
2018-03-01T07:59:53.738Z,24.83
2018-03-01T08:02:21.738Z,29.80
2018-03-01T08:04:49.715Z,31.17
2018-03-01T08:07:17.700Z,28.97
2018-03-01T08:09:45.784Z,30.73
2018-03-01T08:12:13.874Z,27.70
2018-03-01T08:14:41.839Z,26.00
2018-03-01T08:17:09.830Z,23.43
2018-03-01T08:19:37.910Z,28.47
2018-03-01T08:22:05.890Z,23.97
2018-03-01T08:24:33.932Z,26.37
2018-03-01T08:27:01.996Z,25.60
2018-03-01T08:29:29.973Z,22.77
2018-03-01T08:31:57.954Z,28.43
2018-03-01T08:34:25.941Z,30.00
2018-03-01T08:36:54.501Z,27.20
2018-03-01T08:39:22.618Z,27.33
2018-03-01T08:41:50.592Z,25.07
2018-03-01T08:44:18.557Z,27.47
2018-03-01T08:46:46.804Z,29.90
2018-03-01T08:49:14.785Z,24.47
2018-03-01T08:51:42.761Z,27.03
2018-03-01T08:54:10.757Z,25.70
2018-03-01T08:56:39.448Z,25.13
2018-03-01T08:59:07.651Z,29.47
2018-03-01T09:01:35.641Z,25.80
2018-03-01T09:04:03.272Z,28.87
2018-03-01T09:06:31.615Z,28.50
2018-03-01T09:08:59.616Z,29.67
2018-03-01T09:11:27.969Z,25.20
2018-03-01T09:13:55.978Z,27.97
2018-03-01T09:16:24.282Z,28.57
2018-03-01T09:18:52.258Z,30.03
2018-03-01T09:21:20.226Z,27.60
2018-03-01T09:23:48.301Z,26.27
2018-03-01T09:26:16.265Z,28.33
2018-03-01T09:28:44.045Z,27.53
2018-03-01T09:31:12.040Z,28.80
2018-03-01T09:33:40.009Z,26.60
2018-03-01T09:36:07.642Z,26.90
2018-03-01T09:38:35.789Z,29.53
2018-03-01T09:41:03.754Z,30.27
2018-03-01T09:43:31.725Z,32.70
2018-03-01T09:45:59.758Z,30.30
2018-03-01T09:48:27.732Z,26.93
2018-03-01T09:50:55.725Z,26.90
2018-03-01T09:53:23.708Z,27.80
2018-03-01T09:55:51.989Z,21.07
2018-03-01T09:58:19.962Z,29.10
2018-03-01T10:00:48.607Z,29.63
2018-03-01T10:03:16.577Z,24.40
2018-03-01T10:05:44.563Z,29.53
2018-03-01T10:08:12.562Z,22.73
2018-03-01T10:10:40.559Z,28.70
2018-03-01T10:13:09.033Z,30.67
2018-03-01T10:15:36.999Z,30.03
2018-03-01T10:18:05.071Z,29.83
2018-03-01T10:20:33.221Z,29.60
2018-03-01T10:23:01.481Z,30.67
2018-03-01T10:25:29.766Z,30.80
2018-03-01T10:27:57.984Z,29.20
2018-03-01T10:30:25.964Z,28.13
2018-03-01T10:32:53.953Z,30.70
2018-03-01T10:35:21.917Z,29.77
2018-03-01T10:37:49.901Z,26.43
2018-03-01T10:40:18.048Z,30.87
2018-03-01T10:42:46.117Z,32.73
2018-03-01T10:45:14.437Z,30.80
2018-03-01T10:47:42.409Z,31.00
2018-03-01T10:50:10.393Z,31.40
2018-03-01T10:52:38.356Z,30.63
2018-03-01T10:55:06.330Z,30.77
2018-03-01T10:57:34.349Z,26.63
2018-03-01T11:00:02.319Z,27.77
2018-03-01T11:02:30.424Z,29.77
2018-03-01T11:04:58.407Z,31.67
2018-03-01T11:07:26.598Z,29.77
2018-03-01T11:09:54.373Z,29.43
2018-03-01T11:12:22.181Z,27.10
2018-03-01T11:14:51.389Z,27.73
2018-03-01T11:17:19.178Z,28.73
2018-03-01T11:19:46.966Z,31.10
2018-03-01T11:22:14.767Z,29.63
2018-03-01T11:24:43.284Z,28.83
2018-03-01T11:27:11.254Z,30.20
2018-03-01T11:29:39.262Z,29.17
2018-03-01T11:32:07.271Z,28.20
2018-03-01T11:34:35.233Z,30.67
2018-03-01T11:37:03.025Z,29.87
2018-03-01T11:39:31.289Z,28.83
2018-03-01T11:41:59.270Z,28.87
2018-03-01T11:44:27.233Z,30.60
2018-03-01T11:46:55.206Z,28.83
2018-03-01T11:49:23.193Z,30.23
2018-03-01T11:51:51.186Z,28.60
2018-03-01T11:54:19.168Z,25.53
2018-03-01T11:56:47.133Z,27.77
2018-03-01T11:59:15.120Z,29.30
2018-03-01T12:01:43.111Z,28.23
2018-03-01T12:04:11.070Z,28.30
2018-03-01T12:06:39.049Z,27.50
2018-03-01T12:09:07.034Z,27.10
2018-03-01T12:11:35.290Z,27.97
2018-03-01T12:14:03.307Z,30.57
2018-03-01T12:16:31.312Z,29.10
2018-03-01T12:19:03.143Z,28.57
2018-03-01T12:21:32.423Z,25.10
2018-03-01T12:24:01.884Z,26.10
2018-03-01T12:26:30.886Z,26.37
2018-03-01T12:28:59.673Z,28.40
2018-03-01T12:31:27.945Z,24.40
2018-03-01T12:33:55.938Z,27.03
2018-03-01T12:36:23.947Z,24.80
2018-03-01T12:38:51.955Z,27.67
2018-03-01T12:41:19.918Z,25.90
2018-03-01T12:43:47.903Z,28.50
2018-03-01T12:46:15.889Z,27.63
2018-03-01T12:48:43.858Z,27.73
2018-03-01T12:51:11.798Z,28.80
2018-03-01T12:53:39.872Z,26.00
2018-03-01T12:56:07.647Z,29.13
2018-03-01T12:58:35.441Z,26.53
2018-03-01T13:01:04.086Z,28.87
2018-03-01T13:03:32.640Z,25.80
2018-03-01T13:06:00.760Z,29.67
2018-03-01T13:08:28.573Z,30.17
2018-03-01T13:10:56.382Z,27.77
2018-03-01T13:13:24.157Z,28.30
2018-03-01T13:15:51.948Z,28.63
2018-03-01T13:18:19.968Z,24.70
2018-03-01T13:20:48.325Z,28.50
2018-03-01T13:23:16.112Z,28.77
2018-03-01T13:25:43.937Z,27.60
2018-03-01T13:28:11.842Z,29.13
2018-03-01T13:30:39.671Z,27.50
2018-03-01T13:33:07.517Z,30.23
2018-03-01T13:35:35.322Z,27.70
2018-03-01T13:38:03.409Z,30.47
2018-03-01T13:40:31.382Z,28.97
2018-03-01T13:42:59.185Z,32.50
2018-03-01T13:45:27.890Z,31.53
2018-03-01T13:47:56.546Z,29.63
2018-03-01T13:50:24.321Z,30.97
2018-03-01T13:52:52.148Z,30.80
2018-03-01T13:55:19.922Z,29.67
2018-03-01T13:57:47.890Z,30.23
2018-03-01T14:00:15.780Z,30.50
2018-03-01T14:02:43.566Z,30.63
2018-03-01T14:05:11.363Z,28.93
2018-03-01T14:07:42.510Z,29.40
2018-03-01T14:10:10.292Z,29.83
2018-03-01T14:12:47.992Z,30.17
2018-03-01T14:15:15.767Z,32.63
2018-03-01T14:17:49.318Z,30.30
2018-03-01T14:20:33.809Z,27.90
2018-03-01T14:23:21.353Z,30.73
2018-03-01T14:25:49.699Z,29.47
2018-03-01T14:28:37.244Z,28.17
2018-03-01T14:31:05.036Z,29.77
2018-03-01T14:33:32.998Z,29.53
2018-03-01T14:36:01.029Z,30.33
2018-03-01T14:38:28.993Z,30.97
2018-03-01T14:40:57.001Z,31.17
2018-03-01T14:43:24.981Z,30.60
2018-03-01T14:45:52.965Z,27.17
2018-03-01T14:48:20.981Z,31.10
2018-03-01T14:50:48.992Z,31.67
2018-03-01T14:53:16.985Z,28.73
2018-03-01T14:55:44.962Z,30.50
2018-03-01T14:58:12.972Z,30.00
2018-03-01T15:00:40.976Z,30.97
2018-03-01T15:03:08.957Z,33.00
2018-03-01T15:05:36.941Z,29.73
2018-03-01T15:08:04.941Z,28.40
2018-03-01T15:10:33.076Z,30.90
2018-03-01T15:13:01.103Z,31.77
2018-03-01T15:15:29.361Z,30.83
2018-03-01T15:17:57.393Z,28.63
2018-03-01T15:20:26.015Z,29.33
2018-03-01T15:22:54.404Z,30.03
2018-03-01T15:25:22.360Z,30.33
2018-03-01T15:27:50.350Z,31.00
2018-03-01T15:30:18.349Z,28.73
2018-03-01T15:32:46.330Z,27.80
2018-03-01T15:35:14.310Z,27.37
2018-03-01T15:37:42.325Z,29.40
2018-03-01T15:40:10.314Z,28.53
2018-03-01T15:42:38.317Z,26.60
2018-03-01T15:45:06.631Z,30.87
2018-03-01T15:47:34.984Z,29.53
2018-03-01T15:50:03.026Z,24.67
2018-03-01T15:52:31.031Z,31.50
2018-03-01T15:54:59.110Z,29.47
2018-03-01T15:57:27.137Z,29.20
2018-03-01T15:59:55.105Z,30.90
2018-03-01T16:02:23.106Z,31.13
2018-03-01T16:04:51.085Z,27.00
2018-03-01T16:07:19.650Z,30.30
2018-03-01T16:09:47.648Z,31.87
2018-03-01T16:12:15.631Z,31.73
2018-03-01T16:14:43.629Z,28.00
2018-03-01T16:17:11.858Z,30.13
2018-03-01T16:19:39.898Z,33.60
2018-03-01T16:22:07.961Z,30.07
2018-03-01T16:24:35.937Z,32.10
2018-03-01T16:27:03.929Z,32.17
2018-03-01T16:29:32.945Z,30.67
2018-03-01T16:32:00.941Z,28.60
2018-03-01T16:34:28.905Z,32.43
2018-03-01T16:36:56.880Z,31.63
2018-03-01T16:39:24.865Z,33.10
2018-03-01T16:41:52.841Z,35.03
2018-03-01T16:44:20.813Z,30.73
2018-03-01T16:46:48.881Z,31.77
2018-03-01T16:49:16.845Z,31.60
2018-03-01T16:51:46.738Z,32.10
2018-03-01T16:54:14.707Z,28.90
2018-03-01T16:56:42.941Z,27.90
2018-03-01T16:59:10.924Z,32.50
2018-03-01T17:01:38.886Z,31.97
2018-03-01T17:04:07.424Z,34.23
2018-03-01T17:06:35.380Z,32.53
2018-03-01T17:09:03.297Z,24.20
2018-03-01T17:11:31.376Z,32.23
2018-03-01T17:14:01.688Z,33.90
2018-03-01T17:16:30.340Z,29.90
2018-03-01T17:18:58.415Z,33.47
2018-03-01T17:21:26.379Z,32.50
2018-03-01T17:23:54.435Z,31.50
2018-03-01T17:26:22.406Z,32.13
2018-03-01T17:28:50.197Z,35.47
2018-03-01T17:31:18.169Z,27.57
2018-03-01T17:33:46.145Z,32.93
2018-03-01T17:36:14.129Z,34.17
2018-03-01T17:38:42.106Z,29.80
2018-03-01T17:41:10.102Z,32.03
2018-03-01T17:43:38.343Z,32.77
2018-03-01T17:46:06.683Z,33.60
2018-03-01T17:48:34.670Z,27.97
2018-03-01T17:51:02.785Z,33.07
2018-03-01T17:53:31.307Z,34.07
2018-03-01T17:55:59.290Z,34.80
2018-03-01T17:58:27.290Z,27.87
2018-03-01T18:00:55.459Z,35.13
2018-03-01T18:03:23.430Z,33.57
2018-03-01T18:05:51.460Z,32.97
2018-03-01T18:08:19.466Z,33.93
2018-03-01T18:10:47.482Z,34.33
2018-03-01T18:13:15.816Z,32.10
2018-03-01T18:15:44.405Z,35.10
2018-03-01T18:18:12.410Z,32.63
2018-03-01T18:20:41.771Z,34.47
2018-03-01T18:23:10.961Z,31.33
2018-03-01T18:25:39.242Z,33.87
2018-03-01T18:28:07.216Z,32.40
2018-03-01T18:30:35.201Z,26.13
2018-03-01T18:33:03.210Z,28.20
2018-03-01T18:35:31.210Z,32.90
2018-03-01T18:37:59.194Z,33.50
2018-03-01T18:40:27.159Z,32.20
2018-03-01T18:42:55.440Z,31.40
2018-03-01T18:45:23.405Z,34.60
2018-03-01T18:47:51.680Z,33.37
2018-03-01T18:50:20.461Z,35.17
2018-03-01T18:52:48.449Z,34.37
2018-03-01T18:55:16.442Z,33.93
2018-03-01T18:57:44.409Z,34.00
2018-03-01T19:00:12.225Z,33.37
2018-03-01T19:02:40.201Z,29.73
2018-03-01T19:05:08.193Z,34.27
2018-03-01T19:07:37.130Z,34.60
2018-03-01T19:10:05.449Z,30.73
2018-03-01T19:12:33.467Z,34.60
2018-03-01T19:15:01.479Z,33.67
2018-03-01T19:17:29.942Z,35.10
2018-03-01T19:19:58.957Z,33.97
2018-03-01T19:22:26.923Z,36.33
2018-03-01T19:24:54.906Z,34.10
2018-03-01T19:27:22.886Z,33.87
2018-03-01T19:29:50.997Z,35.10
2018-03-01T19:32:18.967Z,29.63
2018-03-01T19:34:46.965Z,36.53
2018-03-01T19:37:14.945Z,34.30
2018-03-01T19:39:42.950Z,34.77
2018-03-01T19:42:11.355Z,36.10
2018-03-01T19:44:39.388Z,37.60
2018-03-01T19:47:08.445Z,38.33
2018-03-01T19:49:36.436Z,38.50
2018-03-01T19:52:05.450Z,36.47
2018-03-01T19:54:35.107Z,37.80
2018-03-01T19:57:03.713Z,37.20
2018-03-01T19:59:31.677Z,37.10
2018-03-01T20:01:59.654Z,37.53
2018-03-01T20:04:27.921Z,36.53
2018-03-01T20:06:56.594Z,39.13
2018-03-01T20:09:25.124Z,37.07
2018-03-01T20:11:53.118Z,26.93
2018-03-01T20:14:22.253Z,36.47
2018-03-01T20:16:50.287Z,39.13
2018-03-01T20:19:18.099Z,39.23
2018-03-01T20:21:46.067Z,34.67
2018-03-01T20:24:14.052Z,40.80
2018-03-01T20:26:42.046Z,35.00
2018-03-01T20:29:10.048Z,40.23
2018-03-01T20:31:38.103Z,41.83
2018-03-01T20:34:06.979Z,43.80
2018-03-01T20:36:34.951Z,41.27
2018-03-01T20:39:02.724Z,41.73
2018-03-01T20:41:30.708Z,39.07
2018-03-01T20:43:59.492Z,41.07
2018-03-01T20:46:27.832Z,40.30
2018-03-01T20:48:55.811Z,40.37
2018-03-01T20:51:24.662Z,42.30
2018-03-01T20:53:52.672Z,43.73
2018-03-01T20:56:20.720Z,41.90
2018-03-01T20:58:49.100Z,43.77
2018-03-01T21:01:17.124Z,40.80
2018-03-01T21:03:45.113Z,39.90
2018-03-01T21:06:13.098Z,43.37
2018-03-01T21:08:41.093Z,41.13
2018-03-01T21:11:09.185Z,41.57
2018-03-01T21:13:37.196Z,34.00
2018-03-01T21:16:05.186Z,40.50
2018-03-01T21:18:33.175Z,41.23
2018-03-01T21:21:01.183Z,43.83
2018-03-01T21:23:29.176Z,42.73
2018-03-01T21:25:57.394Z,42.97
2018-03-01T21:28:25.408Z,39.57
2018-03-01T21:30:53.619Z,43.20
2018-03-01T21:33:21.603Z,39.67
2018-03-01T21:35:50.223Z,42.60
2018-03-01T21:38:18.217Z,39.20
2018-03-01T21:40:46.285Z,34.50
2018-03-01T21:43:14.258Z,42.93
2018-03-01T21:45:42.273Z,42.37
2018-03-01T21:48:10.856Z,37.97
2018-03-01T21:50:38.852Z,41.93
2018-03-01T21:53:06.860Z,37.37
2018-03-01T21:55:34.880Z,38.67
2018-03-01T21:58:02.947Z,35.10
2018-03-01T22:00:31.364Z,41.57
2018-03-01T22:02:59.421Z,39.93
2018-03-01T22:05:27.396Z,36.33
2018-03-01T22:07:55.381Z,43.40
2018-03-01T22:10:23.345Z,41.37
2018-03-01T22:12:51.313Z,34.43
2018-03-01T22:15:19.545Z,42.60
2018-03-01T22:17:47.506Z,42.33
2018-03-01T22:20:15.478Z,41.80
2018-03-01T22:22:43.474Z,39.83
2018-03-01T22:25:11.518Z,41.27
2018-03-01T22:27:39.491Z,41.80
2018-03-01T22:30:07.258Z,40.20
2018-03-01T22:32:35.329Z,41.90
2018-03-01T22:35:03.894Z,40.83
2018-03-01T22:37:32.468Z,42.37
2018-03-01T22:40:00.448Z,44.23
2018-03-01T22:42:28.422Z,43.73
2018-03-01T22:44:56.415Z,43.40
2018-03-01T22:47:24.409Z,41.90
2018-03-01T22:49:52.401Z,42.07
2018-03-01T22:52:20.381Z,42.90
2018-03-01T22:54:49.855Z,28.97
2018-03-01T22:57:18.561Z,37.60
2018-03-01T22:59:47.125Z,42.70
2018-03-01T23:02:15.397Z,41.27
2018-03-01T23:04:44.043Z,39.60
2018-03-01T23:07:13.035Z,39.43
2018-03-01T23:09:41.244Z,39.47
2018-03-01T23:12:09.219Z,42.60
2018-03-01T23:14:36.941Z,41.30
2018-03-01T23:17:05.072Z,42.77
2018-03-01T23:19:33.049Z,42.50
2018-03-01T23:22:01.028Z,43.60
2018-03-01T23:24:29.029Z,48.53
2018-03-01T23:26:57.099Z,38.47
2018-03-01T23:29:25.146Z,46.60
2018-03-01T23:31:53.120Z,39.10
2018-03-01T23:34:21.087Z,40.57
2018-03-01T23:36:49.173Z,44.40
2018-03-01T23:39:17.138Z,41.53
2018-03-01T23:41:45.094Z,45.13
2018-03-01T23:44:13.323Z,46.17
2018-03-01T23:46:41.301Z,39.80
2018-03-01T23:49:10.211Z,43.63
2018-03-01T23:51:38.249Z,47.17
2018-03-01T23:54:06.221Z,49.83
2018-03-01T23:56:34.259Z,49.47
2018-03-01T23:59:02.326Z,31.67
